createdAt,value
2023-11-25T00:04:32.114Z,94275.81
2023-11-25T00:09:33.966Z,94303.25
2023-11-25T00:14:35.824Z,94282.78
2023-11-25T00:19:37.771Z,94287.03
2023-11-25T00:24:41.054Z,94291.69
2023-11-25T00:29:42.755Z,94309.09
2023-11-25T00:34:44.900Z,94322.56
2023-11-25T00:39:46.589Z,94307.19
2023-11-25T00:44:48.314Z,94317.44
2023-11-25T00:49:50.251Z,94327.38
2023-11-25T00:54:51.895Z,94322.84
2023-11-25T00:59:54.624Z,94368.91
2023-11-25T01:04:56.512Z,94350.00
2023-11-25T01:09:58.191Z,94392.66
2023-11-25T01:14:59.813Z,94383.78
2023-11-25T01:20:01.426Z,94396.09
2023-11-25T01:25:03.164Z,94404.16
2023-11-25T01:30:05.967Z,94406.94
2023-11-25T01:35:07.840Z,94404.16
2023-11-25T01:40:12.387Z,94418.47
2023-11-25T01:45:14.112Z,94455.28
2023-11-25T01:50:15.940Z,94446.25
2023-11-25T01:55:18.152Z,94452.50
2023-11-25T02:00:19.947Z,94462.25
2023-11-25T02:05:21.627Z,94480.59
2023-11-25T02:10:23.327Z,94500.63
2023-11-25T02:15:25.391Z,94505.94
2023-11-25T02:20:38.783Z,94538.56
2023-11-25T02:25:40.432Z,94542.09
2023-11-25T02:30:43.926Z,94532.94
2023-11-25T02:35:48.909Z,94547.59
2023-11-25T02:40:50.654Z,94561.84
2023-11-25T02:45:53.588Z,94576.94
2023-11-25T02:50:55.288Z,94591.16
2023-11-25T02:55:56.868Z,94603.13
2023-11-25T03:01:02.855Z,94619.28
2023-11-25T03:06:07.104Z,94632.84
2023-11-25T03:11:17.015Z,94656.28
2023-11-25T03:16:25.692Z,94672.50
2023-11-25T03:21:28.105Z,94685.34
2023-11-25T03:26:29.724Z,94699.72
2023-11-25T03:31:31.564Z,94711.22
2023-11-25T03:36:33.223Z,94733.03
2023-11-25T03:41:37.520Z,94741.16
2023-11-25T03:46:41.795Z,94767.72
2023-11-25T03:51:43.659Z,94764.75
2023-11-25T03:56:46.084Z,94775.22
2023-11-25T04:01:48.192Z,94794.91
2023-11-25T04:06:49.912Z,94804.19
2023-11-25T04:11:52.139Z,94808.34
2023-11-25T04:16:53.970Z,94801.91
2023-11-25T04:21:59.949Z,94822.81
2023-11-25T04:27:02.861Z,94821.47
2023-11-25T04:32:05.631Z,94814.66
2023-11-25T04:37:07.320Z,94822.34
2023-11-25T04:42:09.898Z,94822.81
2023-11-25T04:47:11.654Z,94812.75
2023-11-25T04:52:14.055Z,94823.25
2023-11-25T04:57:15.868Z,94825.56
2023-11-25T05:02:17.571Z,94828.63
2023-11-25T05:07:19.707Z,94834.69
2023-11-25T05:12:21.296Z,94832.38
2023-11-25T05:17:23.718Z,94836.56
2023-11-25T05:22:29.127Z,94845.84
2023-11-25T05:27:30.882Z,94853.22
2023-11-25T05:32:32.962Z,94859.31
2023-11-25T05:37:35.167Z,94867.53
2023-11-25T05:42:38.550Z,94864.78
2023-11-25T05:47:40.483Z,94866.75
2023-11-25T05:52:42.160Z,94870.72
2023-11-25T05:57:45.615Z,94896.00
2023-11-25T06:02:47.398Z,94889.81
2023-11-25T06:07:49.378Z,94910.25
2023-11-25T06:12:50.994Z,94914.84
2023-11-25T06:17:53.825Z,94921.72
2023-11-25T06:22:55.738Z,94915.97
2023-11-25T06:27:57.372Z,94922.22
2023-11-25T06:32:58.995Z,94915.19
2023-11-25T06:38:00.731Z,94899.91
2023-11-25T06:43:02.923Z,94921.84
2023-11-25T06:48:04.896Z,94932.28
2023-11-25T06:53:06.495Z,94924.97
2023-11-25T06:58:12.494Z,94946.16
2023-11-25T07:03:14.902Z,94953.88
2023-11-25T07:08:17.329Z,94952.47
2023-11-25T07:13:19.028Z,94962.91
2023-11-25T07:18:21.051Z,94970.28
2023-11-25T07:23:22.810Z,94977.06
2023-11-25T07:28:25.765Z,94977.31
2023-11-25T07:33:27.538Z,94965.50
2023-11-25T07:38:29.748Z,94955.28
2023-11-25T07:43:32.354Z,94954.84
2023-11-25T07:48:33.993Z,94955.13
2023-11-25T07:53:35.673Z,94959.81
2023-11-25T07:58:37.450Z,94946.34
2023-11-25T08:03:39.233Z,94954.69
2023-11-25T08:08:42.016Z,94958.84
2023-11-25T08:13:43.684Z,94960.13
2023-11-25T08:18:47.300Z,94964.25
2023-11-25T08:23:48.969Z,94981.59
2023-11-25T08:28:51.196Z,94967.59
2023-11-25T08:33:53.737Z,94967.31
2023-11-25T08:38:57.504Z,94973.16
2023-11-25T08:44:00.315Z,94966.84
2023-11-25T08:49:02.083Z,94976.59
2023-11-25T08:54:03.784Z,94962.00
2023-11-25T08:59:07.087Z,94955.78
2023-11-25T09:04:10.058Z,94969.22
2023-11-25T09:09:12.232Z,94965.56
2023-11-25T09:14:15.950Z,94972.16
2023-11-25T09:19:17.852Z,94975.84
2023-11-25T09:24:20.436Z,95001.75
2023-11-25T09:29:22.013Z,94972.22
2023-11-25T09:34:24.658Z,94987.75
2023-11-25T09:39:26.300Z,94993.09
2023-11-25T09:44:29.405Z,94985.44
2023-11-25T09:49:31.048Z,95000.63
2023-11-25T09:54:35.948Z,94991.13
2023-11-25T09:59:38.492Z,94990.50
2023-11-25T10:04:40.925Z,94975.53
2023-11-25T10:09:43.105Z,94974.13
2023-11-25T10:14:45.566Z,94972.28
2023-11-25T10:19:48.392Z,94966.25
2023-11-25T10:24:54.102Z,94963.50
2023-11-25T10:29:55.959Z,94967.50
2023-11-25T10:34:58.030Z,94968.06
2023-11-25T10:40:00.445Z,94959.50
2023-11-25T10:45:05.021Z,94950.38
2023-11-25T10:50:08.076Z,94944.41
2023-11-25T10:55:10.444Z,94928.38
2023-11-25T11:00:13.014Z,94935.31
2023-11-25T11:05:25.318Z,94950.13
2023-11-25T11:10:39.352Z,94924.06
2023-11-25T11:15:44.043Z,94923.13
2023-11-25T11:20:47.643Z,94927.31
2023-11-25T11:25:58.276Z,94915.50
2023-11-25T11:31:37.939Z,94910.16
2023-11-25T11:36:40.656Z,94901.72
2023-11-25T11:41:43.581Z,94899.50
2023-11-25T11:46:45.196Z,94896.06
2023-11-25T11:52:03.877Z,94891.09
2023-11-25T11:57:08.661Z,94902.34
2023-11-25T12:02:12.046Z,94910.09
2023-11-25T12:07:14.678Z,94917.13
2023-11-25T12:12:17.331Z,94920.13
2023-11-25T12:17:19.440Z,94901.88
2023-11-25T12:22:23.284Z,94889.25
2023-11-25T12:27:26.681Z,94878.88
2023-11-25T12:32:28.337Z,94872.94
2023-11-25T12:37:30.147Z,94886.31
2023-11-25T12:42:34.736Z,94870.97
2023-11-25T12:47:52.019Z,94870.59
2023-11-25T12:53:04.067Z,94866.78
2023-11-25T12:58:13.209Z,94857.13
2023-11-25T13:03:29.165Z,94850.59
2023-11-25T13:08:38.478Z,94836.22
2023-11-25T13:13:40.777Z,94828.28
2023-11-25T13:18:51.413Z,94819.13
2023-11-25T13:23:53.634Z,94814.31
2023-11-25T13:28:55.958Z,94818.91
2023-11-25T13:33:59.366Z,94804.94
2023-11-25T13:39:05.627Z,94797.97
2023-11-25T13:44:07.502Z,94798.31
2023-11-25T13:49:09.448Z,94797.56
2023-11-25T13:54:11.120Z,94797.22
2023-11-25T13:59:12.869Z,94796.81
2023-11-25T14:04:14.523Z,94802.97
2023-11-25T14:09:18.749Z,94803.69
2023-11-25T14:14:20.863Z,94804.06
2023-11-25T14:19:23.362Z,94795.78
2023-11-25T14:24:26.735Z,94795.41
2023-11-25T14:29:28.356Z,94791.19
2023-11-25T14:34:29.978Z,94787.44
2023-11-25T14:39:42.285Z,94786.69
2023-11-25T14:44:51.450Z,94781.66
2023-11-25T14:49:53.343Z,94784.03
2023-11-25T14:54:55.038Z,94772.50
2023-11-25T14:59:56.668Z,94776.47
2023-11-25T15:04:58.569Z,94778.41
2023-11-25T15:10:00.188Z,94770.09
2023-11-25T15:15:01.873Z,94777.41
2023-11-25T15:20:04.928Z,94768.94
2023-11-25T15:25:07.623Z,94767.41
2023-11-25T15:30:11.294Z,94762.78
2023-11-25T15:35:13.299Z,94753.13
2023-11-25T15:40:16.068Z,94756.25
2023-11-25T15:45:18.047Z,94754.63
2023-11-25T15:50:19.684Z,94738.44
2023-11-25T15:55:23.662Z,94736.50
2023-11-25T16:00:26.898Z,94742.19
2023-11-25T16:05:28.621Z,94732.16
2023-11-25T16:10:33.043Z,94729.44
2023-11-25T16:15:35.604Z,94723.72
2023-11-25T16:20:41.292Z,94725.25
2023-11-25T16:25:43.052Z,94719.13
2023-11-25T16:30:44.782Z,94723.63
2023-11-25T16:35:47.429Z,94734.06
2023-11-25T16:40:49.173Z,94735.72
2023-11-25T16:45:50.827Z,94737.19
2023-11-25T16:50:53.876Z,94726.72
2023-11-25T16:55:57.006Z,94725.94
2023-11-25T17:00:58.822Z,94732.13
2023-11-25T17:06:00.503Z,94736.03
2023-11-25T17:11:02.155Z,94736.75
2023-11-25T17:16:05.204Z,94743.41
2023-11-25T17:21:07.926Z,94743.09
2023-11-25T17:26:09.603Z,94748.50
2023-11-25T17:31:11.374Z,94750.88
2023-11-25T17:36:12.914Z,94757.19
2023-11-25T17:41:18.193Z,94771.44
2023-11-25T17:46:20.104Z,94769.16
2023-11-25T17:51:22.085Z,94767.63
2023-11-25T17:56:23.775Z,94780.69
2023-11-25T18:01:25.522Z,94795.63
2023-11-25T18:06:27.093Z,94785.31
2023-11-25T18:11:28.659Z,94777.31
2023-11-25T18:16:30.242Z,94776.63
2023-11-25T18:21:31.779Z,94775.97
2023-11-25T18:26:33.354Z,94775.56
2023-11-25T18:31:35.130Z,94795.34
2023-11-25T18:36:36.858Z,94783.00
2023-11-25T18:41:38.451Z,94787.66
2023-11-25T18:46:40.099Z,94793.47
2023-11-25T18:51:48.538Z,94802.72
2023-11-25T18:56:50.153Z,94803.94
2023-11-25T19:01:51.993Z,94801.16
2023-11-25T19:06:53.621Z,94806.59
2023-11-25T19:11:55.262Z,94812.81
2023-11-25T19:16:57.730Z,94812.03
2023-11-25T19:21:59.361Z,94820.13
2023-11-25T19:27:02.297Z,94863.94
2023-11-25T19:32:04.840Z,94823.56
2023-11-25T19:37:06.537Z,94842.13
2023-11-25T19:42:08.959Z,94858.13
2023-11-25T19:47:10.844Z,94862.78
2023-11-25T19:52:12.547Z,94863.06
2023-11-25T19:57:15.394Z,94870.56
2023-11-25T20:02:17.226Z,94874.44
2023-11-25T20:07:18.995Z,94876.38
2023-11-25T20:12:20.635Z,94881.69
2023-11-25T20:17:23.760Z,94894.47
2023-11-25T20:22:25.623Z,94894.88
2023-11-25T20:27:27.297Z,94878.69
2023-11-25T20:32:28.974Z,94885.25
2023-11-25T20:37:30.891Z,94890.22
2023-11-25T20:42:32.594Z,94884.78
2023-11-25T20:47:34.171Z,94888.19
2023-11-25T20:52:36.911Z,94894.84
2023-11-25T20:57:39.793Z,94905.75
2023-11-25T21:02:42.535Z,94903.47
2023-11-25T21:07:44.422Z,94912.38
2023-11-25T21:12:46.046Z,94907.81
2023-11-25T21:17:48.733Z,94924.13
2023-11-25T21:22:50.325Z,94933.03
2023-11-25T21:27:54.601Z,94942.75
2023-11-25T21:32:57.758Z,94940.81
2023-11-25T21:37:59.441Z,94951.16
2023-11-25T21:43:01.029Z,94955.34
2023-11-25T21:48:02.642Z,94961.34
2023-11-25T21:53:04.373Z,94968.84
2023-11-25T21:58:06.468Z,94965.53
2023-11-25T22:03:08.565Z,94964.94
2023-11-25T22:08:10.383Z,94974.09
2023-11-25T22:13:12.559Z,94968.66
2023-11-25T22:18:14.693Z,94983.09
2023-11-25T22:23:18.029Z,94982.28
2023-11-25T22:28:19.744Z,94994.13
2023-11-25T22:33:21.408Z,95010.22
2023-11-25T22:38:23.170Z,95017.88
2023-11-25T22:43:24.791Z,95025.59
2023-11-25T22:48:26.373Z,95019.50
2023-11-25T22:53:27.969Z,95031.50
2023-11-25T22:58:29.586Z,95023.41
2023-11-25T23:03:31.448Z,95034.25
2023-11-25T23:08:33.091Z,95023.91
2023-11-25T23:13:34.639Z,95027.44
2023-11-25T23:18:37.500Z,95034.75
2023-11-25T23:23:46.102Z,95027.72
2023-11-25T23:28:50.398Z,95041.56
2023-11-25T23:33:52.780Z,95038.44
2023-11-25T23:38:54.490Z,95040.00
2023-11-25T23:43:56.078Z,95040.34
2023-11-25T23:48:57.739Z,95044.88
2023-11-25T23:54:00.410Z,95055.88
2023-11-25T23:59:02.279Z,95058.84
